Aldine, Texas
Current Conditions -  °F | °C
As of 8:53 AM on Thursday 23 Oct 2014 (Local Time) from KIAH Reporting Station
Overcast Overcast  
Wind Chill: 61°   Ceiling: 18000
Heat Index: 61°   Visibility: 10mi
Dew Point: 54°   Wind: 7mph
Humidity: 78%   Direction: 70°ENE
Pressure: 30.11"   Gusts: NA
Location:  29.93°N, 95.38°W
Report Text: KIAH 231353Z 07006KT 10SM OVC180 16/12 A3011 RMK AO2 SLP196 T01610122
Loading
Personal Weather Stations






























Interactive Weather Map
Tropical Storm Tracking
New forecast layout! Learn more

10-Day Weather Forecast

Advertisements
Track Severe Weather on mobile